sensor_id;sensor_type;location;lat;lon;timestamp;P1;durP1;ratioP1;P2;durP2;ratioP2
2225;SDS011;1119;48.288;8.726;2023-02-14T00:02:19;12.32;;;10.13;;
2225;SDS011;1119;48.288;8.726;2023-02-14T00:04:47;14.85;;;11.95;;
2225;SDS011;1119;48.288;8.726;2023-02-14T00:07:14;15.18;;;11.38;;
2225;SDS011;1119;48.288;8.726;2023-02-14T00:09:42;12.65;;;11.02;;
2225;SDS011;1119;48.288;8.726;2023-02-14T00:12:09;16.45;;;12.02;;
2225;SDS011;1119;48.288;8.726;2023-02-14T00:14:36;15.85;;;11.85;;
2225;SDS011;1119;48.288;8.726;2023-02-14T00:17:21;18.13;;;13.68;;
2225;SDS011;1119;48.288;8.726;2023-02-14T00:19:50;12.95;;;11.65;;
2225;SDS011;1119;48.288;8.726;2023-02-14T00:22:17;12.65;;;11.18;;
2225;SDS011;1119;48.288;8.726;2023-02-14T00:24:44;16.17;;;12.63;;
2225;SDS011;1119;48.288;8.726;2023-02-14T00:27:11;13.45;;;12.15;;
2225;SDS011;1119;48.288;8.726;2023-02-14T00:29:39;17.40;;;13.18;;
2225;SDS011;1119;48.288;8.726;2023-02-14T00:32:06;20.35;;;12.77;;
2225;SDS011;1119;48.288;8.726;2023-02-14T00:34:34;14.68;;;12.05;;
2225;SDS011;1119;48.288;8.726;2023-02-14T00:37:03;15.40;;;13.80;;
2225;SDS011;1119;48.288;8.726;2023-02-14T00:39:30;18.85;;;14.98;;
2225;SDS011;1119;48.288;8.726;2023-02-14T00:41:57;21.08;;;12.65;;
2225;SDS011;1119;48.288;8.726;2023-02-14T00:44:25;14.02;;;12.32;;
2225;SDS011;1119;48.288;8.726;2023-02-14T00:46:52;15.40;;;11.50;;
2225;SDS011;1119;48.288;8.726;2023-02-14T00:49:22;16.33;;;12.68;;
2225;SDS011;1119;48.288;8.726;2023-02-14T00:51:49;16.92;;;13.00;;
2225;SDS011;1119;48.288;8.726;2023-02-14T00:54:17;11.13;;;10.02;;
2225;SDS011;1119;48.288;8.726;2023-02-14T00:56:45;13.13;;;10.48;;
2225;SDS011;1119;48.288;8.726;2023-02-14T00:59:12;13.32;;;11.20;;
2225;SDS011;1119;48.288;8.726;2023-02-14T01:01:40;10.88;;;9.77;;
2225;SDS011;1119;48.288;8.726;2023-02-14T01:04:08;16.20;;;14.15;;
2225;SDS011;1119;48.288;8.726;2023-02-14T01:06:37;12.13;;;10.85;;
2225;SDS011;1119;48.288;8.726;2023-02-14T01:09:04;16.35;;;14.73;;
2225;SDS011;1119;48.288;8.726;2023-02-14T01:11:33;11.63;;;10.02;;
2225;SDS011;1119;48.288;8.726;2023-02-14T01:14:00;26.67;;;12.00;;
2225;SDS011;1119;48.288;8.726;2023-02-14T01:16:28;17.13;;;11.75;;
2225;SDS011;1119;48.288;8.726;2023-02-14T01:18:57;18.58;;;13.10;;
2225;SDS011;1119;48.288;8.726;2023-02-14T01:21:26;28.13;;;16.10;;
2225;SDS011;1119;48.288;8.726;2023-02-14T01:23:56;18.95;;;13.52;;
2225;SDS011;1119;48.288;8.726;2023-02-14T01:26:28;17.45;;;12.48;;
2225;SDS011;1119;48.288;8.726;2023-02-14T01:29:01;13.77;;;10.65;;
2225;SDS011;1119;48.288;8.726;2023-02-14T01:31:30;12.35;;;10.20;;
2225;SDS011;1119;48.288;8.726;2023-02-14T01:33:59;9.57;;;8.65;;
2225;SDS011;1119;48.288;8.726;2023-02-14T01:36:28;16.70;;;13.10;;
2225;SDS011;1119;48.288;8.726;2023-02-14T01:39:00;20.70;;;13.52;;
2225;SDS011;1119;48.288;8.726;2023-02-14T01:41:30;15.32;;;11.98;;
2225;SDS011;1119;48.288;8.726;2023-02-14T01:44:02;15.55;;;12.60;;
2225;SDS011;1119;48.288;8.726;2023-02-14T01:46:33;20.42;;;15.10;;
2225;SDS011;1119;48.288;8.726;2023-02-14T01:49:04;10.93;;;9.68;;
2225;SDS011;1119;48.288;8.726;2023-02-14T01:51:37;13.57;;;11.43;;
2225;SDS011;1119;48.288;8.726;2023-02-14T01:54:09;13.73;;;12.35;;
2225;SDS011;1119;48.288;8.726;2023-02-14T01:56:39;14.45;;;12.68;;
2225;SDS011;1119;48.288;8.726;2023-02-14T01:59:14;15.07;;;12.73;;
2225;SDS011;1119;48.288;8.726;2023-02-14T02:01:45;15.65;;;13.23;;
2225;SDS011;1119;48.288;8.726;2023-02-14T02:04:18;20.52;;;14.43;;
2225;SDS011;1119;48.288;8.726;2023-02-14T02:06:50;16.15;;;11.32;;
2225;SDS011;1119;48.288;8.726;2023-02-14T02:09:23;18.17;;;13.70;;
2225;SDS011;1119;48.288;8.726;2023-02-14T02:11:56;16.55;;;12.93;;
2225;SDS011;1119;48.288;8.726;2023-02-14T02:14:28;17.35;;;12.43;;
2225;SDS011;1119;48.288;8.726;2023-02-14T02:16:59;17.35;;;13.70;;
2225;SDS011;1119;48.288;8.726;2023-02-14T02:23:10;19.95;;;14.90;;
2225;SDS011;1119;48.288;8.726;2023-02-14T02:36:05;23.52;;;13.50;;
2225;SDS011;1119;48.288;8.726;2023-02-14T02:38:46;22.30;;;15.73;;
2225;SDS011;1119;48.288;8.726;2023-02-14T02:41:31;25.55;;;12.35;;
2225;SDS011;1119;48.288;8.726;2023-02-14T02:44:12;17.58;;;13.07;;
2225;SDS011;1119;48.288;8.726;2023-02-14T02:46:45;15.73;;;12.50;;
2225;SDS011;1119;48.288;8.726;2023-02-14T02:49:35;20.05;;;15.23;;
2225;SDS011;1119;48.288;8.726;2023-02-14T02:52:33;17.45;;;12.75;;
2225;SDS011;1119;48.288;8.726;2023-02-14T02:55:26;21.75;;;13.77;;
2225;SDS011;1119;48.288;8.726;2023-02-14T02:58:16;12.82;;;10.75;;
2225;SDS011;1119;48.288;8.726;2023-02-14T03:00:45;18.88;;;13.63;;
2225;SDS011;1119;48.288;8.726;2023-02-14T03:03:14;25.00;;;15.57;;
2225;SDS011;1119;48.288;8.726;2023-02-14T03:05:59;18.48;;;13.80;;
2225;SDS011;1119;48.288;8.726;2023-02-14T03:08:29;18.58;;;13.63;;
2225;SDS011;1119;48.288;8.726;2023-02-14T03:10:56;19.45;;;13.30;;
2225;SDS011;1119;48.288;8.726;2023-02-14T03:13:29;22.42;;;15.27;;
2225;SDS011;1119;48.288;8.726;2023-02-14T03:16:25;18.77;;;14.20;;
2225;SDS011;1119;48.288;8.726;2023-02-14T03:21:57;16.80;;;12.35;;
2225;SDS011;1119;48.288;8.726;2023-02-14T03:24:35;24.88;;;13.68;;
2225;SDS011;1119;48.288;8.726;2023-02-14T03:27:14;21.75;;;13.55;;
2225;SDS011;1119;48.288;8.726;2023-02-14T03:29:51;23.35;;;14.88;;
2225;SDS011;1119;48.288;8.726;2023-02-14T03:32:27;18.30;;;16.15;;
2225;SDS011;1119;48.288;8.726;2023-02-14T03:35:05;15.77;;;13.35;;
2225;SDS011;1119;48.288;8.726;2023-02-14T03:37:40;20.77;;;14.93;;
2225;SDS011;1119;48.288;8.726;2023-02-14T03:40:15;19.98;;;14.25;;
2225;SDS011;1119;48.288;8.726;2023-02-14T03:42:49;18.65;;;13.70;;
2225;SDS011;1119;48.288;8.726;2023-02-14T03:45:21;15.90;;;14.15;;
2225;SDS011;1119;48.288;8.726;2023-02-14T03:47:54;26.42;;;17.33;;
2225;SDS011;1119;48.288;8.726;2023-02-14T03:50:24;23.77;;;13.35;;
2225;SDS011;1119;48.288;8.726;2023-02-14T03:52:53;30.60;;;17.27;;
2225;SDS011;1119;48.288;8.726;2023-02-14T03:55:26;20.17;;;12.70;;
2225;SDS011;1119;48.288;8.726;2023-02-14T03:58:00;25.08;;;16.55;;
2225;SDS011;1119;48.288;8.726;2023-02-14T04:00:35;18.73;;;15.13;;
2225;SDS011;1119;48.288;8.726;2023-02-14T04:03:06;19.35;;;13.80;;
2225;SDS011;1119;48.288;8.726;2023-02-14T04:05:37;23.05;;;15.45;;
2225;SDS011;1119;48.288;8.726;2023-02-14T04:08:08;20.33;;;15.05;;
2225;SDS011;1119;48.288;8.726;2023-02-14T04:10:38;16.55;;;13.60;;
2225;SDS011;1119;48.288;8.726;2023-02-14T04:13:07;21.13;;;13.55;;
2225;SDS011;1119;48.288;8.726;2023-02-14T04:15:34;21.30;;;15.80;;
2225;SDS011;1119;48.288;8.726;2023-02-14T04:18:02;17.00;;;12.68;;
2225;SDS011;1119;48.288;8.726;2023-02-14T04:20:47;18.95;;;13.68;;
2225;SDS011;1119;48.288;8.726;2023-02-14T04:23:14;12.70;;;11.43;;
2225;SDS011;1119;48.288;8.726;2023-02-14T04:25:42;17.77;;;12.68;;
2225;SDS011;1119;48.288;8.726;2023-02-14T04:28:10;14.32;;;12.73;;
2225;SDS011;1119;48.288;8.726;2023-02-14T04:30:37;17.60;;;14.38;;
2225;SDS011;1119;48.288;8.726;2023-02-14T04:33:05;17.70;;;14.82;;
2225;SDS011;1119;48.288;8.726;2023-02-14T04:35:33;13.93;;;11.82;;
2225;SDS011;1119;48.288;8.726;2023-02-14T04:38:00;16.77;;;14.52;;
2225;SDS011;1119;48.288;8.726;2023-02-14T04:40:29;21.20;;;13.68;;
2225;SDS011;1119;48.288;8.726;2023-02-14T04:42:57;16.20;;;13.93;;
2225;SDS011;1119;48.288;8.726;2023-02-14T04:45:25;17.60;;;12.65;;
2225;SDS011;1119;48.288;8.726;2023-02-14T04:47:53;18.63;;;15.10;;
2225;SDS011;1119;48.288;8.726;2023-02-14T04:50:20;16.48;;;14.55;;
2225;SDS011;1119;48.288;8.726;2023-02-14T04:52:50;27.45;;;13.35;;
2225;SDS011;1119;48.288;8.726;2023-02-14T04:55:17;19.33;;;13.70;;
2225;SDS011;1119;48.288;8.726;2023-02-14T04:57:45;23.90;;;17.58;;
2225;SDS011;1119;48.288;8.726;2023-02-14T05:00:14;24.55;;;15.30;;
2225;SDS011;1119;48.288;8.726;2023-02-14T05:02:42;19.88;;;12.48;;
2225;SDS011;1119;48.288;8.726;2023-02-14T05:05:09;18.80;;;12.15;;
2225;SDS011;1119;48.288;8.726;2023-02-14T05:07:37;18.88;;;14.82;;
2225;SDS011;1119;48.288;8.726;2023-02-14T05:10:04;16.40;;;13.25;;
2225;SDS011;1119;48.288;8.726;2023-02-14T05:12:33;17.73;;;13.32;;
2225;SDS011;1119;48.288;8.726;2023-02-14T05:15:00;19.15;;;12.02;;
2225;SDS011;1119;48.288;8.726;2023-02-14T05:17:29;18.65;;;13.20;;
2225;SDS011;1119;48.288;8.726;2023-02-14T05:19:56;25.00;;;13.25;;
2225;SDS011;1119;48.288;8.726;2023-02-14T05:22:23;21.77;;;13.52;;
2225;SDS011;1119;48.288;8.726;2023-02-14T05:24:51;17.15;;;12.30;;
2225;SDS011;1119;48.288;8.726;2023-02-14T05:27:18;18.65;;;13.73;;
2225;SDS011;1119;48.288;8.726;2023-02-14T05:29:45;13.73;;;10.85;;
2225;SDS011;1119;48.288;8.726;2023-02-14T05:32:12;20.98;;;14.32;;
2225;SDS011;1119;48.288;8.726;2023-02-14T05:34:42;24.80;;;14.35;;
2225;SDS011;1119;48.288;8.726;2023-02-14T05:37:09;16.02;;;13.02;;
2225;SDS011;1119;48.288;8.726;2023-02-14T05:39:37;18.70;;;12.80;;
2225;SDS011;1119;48.288;8.726;2023-02-14T05:42:04;16.85;;;13.43;;
2225;SDS011;1119;48.288;8.726;2023-02-14T05:44:32;25.70;;;13.30;;
2225;SDS011;1119;48.288;8.726;2023-02-14T05:46:59;20.52;;;12.00;;
2225;SDS011;1119;48.288;8.726;2023-02-14T05:49:26;18.45;;;13.13;;
2225;SDS011;1119;48.288;8.726;2023-02-14T05:51:55;26.02;;;15.38;;
2225;SDS011;1119;48.288;8.726;2023-02-14T05:54:22;21.33;;;15.57;;
2225;SDS011;1119;48.288;8.726;2023-02-14T05:56:50;18.48;;;10.90;;
2225;SDS011;1119;48.288;8.726;2023-02-14T05:59:17;14.98;;;11.63;;
2225;SDS011;1119;48.288;8.726;2023-02-14T06:01:45;19.25;;;14.43;;
2225;SDS011;1119;48.288;8.726;2023-02-14T06:04:12;18.30;;;13.90;;
2225;SDS011;1119;48.288;8.726;2023-02-14T06:06:39;20.23;;;12.10;;
2225;SDS011;1119;48.288;8.726;2023-02-14T06:09:08;18.17;;;13.00;;
2225;SDS011;1119;48.288;8.726;2023-02-14T06:11:36;22.17;;;14.23;;
2225;SDS011;1119;48.288;8.726;2023-02-14T06:14:03;13.90;;;12.02;;
2225;SDS011;1119;48.288;8.726;2023-02-14T06:16:31;22.05;;;14.38;;
2225;SDS011;1119;48.288;8.726;2023-02-14T06:18:58;18.27;;;13.70;;
2225;SDS011;1119;48.288;8.726;2023-02-14T06:21:26;17.70;;;13.68;;
2225;SDS011;1119;48.288;8.726;2023-02-14T06:23:53;13.35;;;10.55;;
2225;SDS011;1119;48.288;8.726;2023-02-14T06:26:22;18.13;;;12.77;;
2225;SDS011;1119;48.288;8.726;2023-02-14T06:28:52;18.40;;;13.52;;
2225;SDS011;1119;48.288;8.726;2023-02-14T06:31:20;18.65;;;13.00;;
2225;SDS011;1119;48.288;8.726;2023-02-14T06:33:47;17.10;;;13.65;;
2225;SDS011;1119;48.288;8.726;2023-02-14T06:36:15;20.15;;;13.35;;
2225;SDS011;1119;48.288;8.726;2023-02-14T06:38:42;25.95;;;13.38;;
2225;SDS011;1119;48.288;8.726;2023-02-14T06:41:12;21.02;;;13.40;;
2225;SDS011;1119;48.288;8.726;2023-02-14T06:43:43;18.10;;;12.77;;
2225;SDS011;1119;48.288;8.726;2023-02-14T06:46:13;18.35;;;12.73;;
2225;SDS011;1119;48.288;8.726;2023-02-14T06:48:41;18.23;;;12.55;;
2225;SDS011;1119;48.288;8.726;2023-02-14T06:51:09;16.02;;;13.38;;
2225;SDS011;1119;48.288;8.726;2023-02-14T06:53:37;21.27;;;13.07;;
2225;SDS011;1119;48.288;8.726;2023-02-14T06:56:04;17.85;;;11.30;;
2225;SDS011;1119;48.288;8.726;2023-02-14T06:58:32;25.90;;;13.33;;
2225;SDS011;1119;48.288;8.726;2023-02-14T07:01:01;15.27;;;11.82;;
2225;SDS011;1119;48.288;8.726;2023-02-14T07:03:30;14.25;;;9.57;;
2225;SDS011;1119;48.288;8.726;2023-02-14T07:05:57;16.73;;;12.73;;
2225;SDS011;1119;48.288;8.726;2023-02-14T07:08:25;16.92;;;11.73;;
2225;SDS011;1119;48.288;8.726;2023-02-14T07:10:54;21.57;;;12.90;;
2225;SDS011;1119;48.288;8.726;2023-02-14T07:13:22;17.30;;;13.33;;
2225;SDS011;1119;48.288;8.726;2023-02-14T07:15:49;18.47;;;15.63;;
2225;SDS011;1119;48.288;8.726;2023-02-14T07:18:18;16.90;;;12.67;;
2225;SDS011;1119;48.288;8.726;2023-02-14T07:20:45;18.27;;;14.47;;
2225;SDS011;1119;48.288;8.726;2023-02-14T07:23:13;18.33;;;13.60;;
2225;SDS011;1119;48.288;8.726;2023-02-14T07:25:40;20.87;;;12.53;;
2225;SDS011;1119;48.288;8.726;2023-02-14T07:28:07;19.47;;;14.40;;
2225;SDS011;1119;48.288;8.726;2023-02-14T07:30:35;19.30;;;13.87;;
2225;SDS011;1119;48.288;8.726;2023-02-14T07:33:05;21.40;;;14.60;;
2225;SDS011;1119;48.288;8.726;2023-02-14T07:35:34;17.20;;;13.80;;
2225;SDS011;1119;48.288;8.726;2023-02-14T07:38:01;18.47;;;13.90;;
2225;SDS011;1119;48.288;8.726;2023-02-14T07:40:28;13.47;;;12.10;;
2225;SDS011;1119;48.288;8.726;2023-02-14T07:42:56;24.87;;;14.87;;
2225;SDS011;1119;48.288;8.726;2023-02-14T07:45:25;17.10;;;13.35;;
2225;SDS011;1119;48.288;8.726;2023-02-14T07:47:53;21.30;;;12.53;;
2225;SDS011;1119;48.288;8.726;2023-02-14T07:50:23;24.15;;;15.00;;
2225;SDS011;1119;48.288;8.726;2023-02-14T07:52:52;18.83;;;13.87;;
2225;SDS011;1119;48.288;8.726;2023-02-14T07:55:19;20.05;;;13.50;;
2225;SDS011;1119;48.288;8.726;2023-02-14T07:57:49;24.25;;;17.20;;
2225;SDS011;1119;48.288;8.726;2023-02-14T08:00:18;20.50;;;15.70;;
2225;SDS011;1119;48.288;8.726;2023-02-14T08:02:47;18.63;;;14.27;;
2225;SDS011;1119;48.288;8.726;2023-02-14T08:05:14;18.38;;;13.35;;
2225;SDS011;1119;48.288;8.726;2023-02-14T08:07:41;23.70;;;15.95;;
2225;SDS011;1119;48.288;8.726;2023-02-14T08:10:10;19.35;;;14.90;;
2225;SDS011;1119;48.288;8.726;2023-02-14T08:12:38;20.67;;;14.85;;
2225;SDS011;1119;48.288;8.726;2023-02-14T08:15:23;19.08;;;14.32;;
2225;SDS011;1119;48.288;8.726;2023-02-14T08:18:07;17.02;;;12.23;;
2225;SDS011;1119;48.288;8.726;2023-02-14T08:20:35;22.13;;;16.88;;
2225;SDS011;1119;48.288;8.726;2023-02-14T08:23:02;16.13;;;13.02;;
2225;SDS011;1119;48.288;8.726;2023-02-14T08:25:31;18.73;;;13.25;;
2225;SDS011;1119;48.288;8.726;2023-02-14T08:28:00;15.18;;;13.52;;
2225;SDS011;1119;48.288;8.726;2023-02-14T08:30:28;24.33;;;18.30;;
2225;SDS011;1119;48.288;8.726;2023-02-14T08:32:55;17.95;;;12.60;;
2225;SDS011;1119;48.288;8.726;2023-02-14T08:35:23;26.42;;;14.23;;
2225;SDS011;1119;48.288;8.726;2023-02-14T08:37:50;22.20;;;15.87;;
2225;SDS011;1119;48.288;8.726;2023-02-14T08:40:17;25.52;;;17.17;;
2225;SDS011;1119;48.288;8.726;2023-02-14T08:42:46;20.60;;;15.10;;
2225;SDS011;1119;48.288;8.726;2023-02-14T08:45:14;25.70;;;16.20;;
2225;SDS011;1119;48.288;8.726;2023-02-14T08:47:41;24.52;;;16.23;;
2225;SDS011;1119;48.288;8.726;2023-02-14T08:50:10;24.43;;;17.53;;
2225;SDS011;1119;48.288;8.726;2023-02-14T08:52:39;20.67;;;15.80;;
2225;SDS011;1119;48.288;8.726;2023-02-14T08:55:09;26.50;;;17.70;;
2225;SDS011;1119;48.288;8.726;2023-02-14T08:57:37;24.40;;;16.93;;
2225;SDS011;1119;48.288;8.726;2023-02-14T09:00:07;30.75;;;15.27;;
2225;SDS011;1119;48.288;8.726;2023-02-14T09:02:35;21.23;;;14.33;;
2225;SDS011;1119;48.288;8.726;2023-02-14T09:05:03;24.57;;;18.43;;
2225;SDS011;1119;48.288;8.726;2023-02-14T09:07:32;28.50;;;18.20;;
2225;SDS011;1119;48.288;8.726;2023-02-14T09:10:00;19.53;;;15.33;;
2225;SDS011;1119;48.288;8.726;2023-02-14T09:12:28;29.50;;;16.20;;
2225;SDS011;1119;48.288;8.726;2023-02-14T09:14:55;27.70;;;17.83;;
2225;SDS011;1119;48.288;8.726;2023-02-14T09:17:24;20.67;;;14.20;;
2225;SDS011;1119;48.288;8.726;2023-02-14T09:19:51;24.47;;;18.10;;
2225;SDS011;1119;48.288;8.726;2023-02-14T09:22:18;25.10;;;16.40;;
2225;SDS011;1119;48.288;8.726;2023-02-14T09:24:46;31.50;;;17.93;;
2225;SDS011;1119;48.288;8.726;2023-02-14T09:27:13;24.20;;;18.43;;
2225;SDS011;1119;48.288;8.726;2023-02-14T09:29:41;24.83;;;17.43;;
2225;SDS011;1119;48.288;8.726;2023-02-14T09:32:08;25.23;;;18.43;;
2225;SDS011;1119;48.288;8.726;2023-02-14T09:34:37;22.17;;;19.00;;
2225;SDS011;1119;48.288;8.726;2023-02-14T09:37:21;23.53;;;18.40;;
2225;SDS011;1119;48.288;8.726;2023-02-14T09:40:07;23.37;;;20.00;;
2225;SDS011;1119;48.288;8.726;2023-02-14T09:42:40;22.87;;;19.27;;
2225;SDS011;1119;48.288;8.726;2023-02-14T09:45:20;23.80;;;17.60;;
2225;SDS011;1119;48.288;8.726;2023-02-14T09:47:51;26.37;;;17.30;;
2225;SDS011;1119;48.288;8.726;2023-02-14T09:50:24;21.70;;;18.90;;
2225;SDS011;1119;48.288;8.726;2023-02-14T09:53:00;21.60;;;16.93;;
2225;SDS011;1119;48.288;8.726;2023-02-14T09:55:33;21.83;;;19.10;;
2225;SDS011;1119;48.288;8.726;2023-02-14T09:58:10;22.97;;;17.60;;
2225;SDS011;1119;48.288;8.726;2023-02-14T10:00:44;23.73;;;17.07;;
2225;SDS011;1119;48.288;8.726;2023-02-14T10:06:09;19.53;;;17.33;;
2225;SDS011;1119;48.288;8.726;2023-02-14T10:08:54;23.00;;;18.33;;
2225;SDS011;1119;48.288;8.726;2023-02-14T10:11:33;22.03;;;15.60;;
2225;SDS011;1119;48.288;8.726;2023-02-14T10:14:03;20.40;;;16.37;;
2225;SDS011;1119;48.288;8.726;2023-02-14T10:16:38;21.40;;;17.23;;
2225;SDS011;1119;48.288;8.726;2023-02-14T10:19:13;22.50;;;18.67;;
2225;SDS011;1119;48.288;8.726;2023-02-14T10:21:49;21.17;;;16.57;;
2225;SDS011;1119;48.288;8.726;2023-02-14T10:24:21;20.67;;;16.03;;
2225;SDS011;1119;48.288;8.726;2023-02-14T10:26:54;22.70;;;16.13;;
2225;SDS011;1119;48.288;8.726;2023-02-14T10:29:27;19.40;;;15.50;;
2225;SDS011;1119;48.288;8.726;2023-02-14T10:31:55;22.50;;;16.63;;
2225;SDS011;1119;48.288;8.726;2023-02-14T10:34:28;22.23;;;16.77;;
2225;SDS011;1119;48.288;8.726;2023-02-14T10:37:10;21.60;;;15.97;;
2225;SDS011;1119;48.288;8.726;2023-02-14T10:39:54;16.57;;;14.87;;
2225;SDS011;1119;48.288;8.726;2023-02-14T10:42:48;19.93;;;16.87;;
2225;SDS011;1119;48.288;8.726;2023-02-14T10:45:26;21.37;;;16.50;;
2225;SDS011;1119;48.288;8.726;2023-02-14T10:48:04;19.90;;;17.50;;
2225;SDS011;1119;48.288;8.726;2023-02-14T10:50:43;18.17;;;16.40;;
2225;SDS011;1119;48.288;8.726;2023-02-14T10:53:22;18.20;;;14.77;;
2225;SDS011;1119;48.288;8.726;2023-02-14T10:56:00;20.90;;;15.63;;
2225;SDS011;1119;48.288;8.726;2023-02-14T10:58:31;15.40;;;13.77;;
2225;SDS011;1119;48.288;8.726;2023-02-14T11:01:02;20.03;;;15.27;;
2225;SDS011;1119;48.288;8.726;2023-02-14T11:03:34;17.80;;;13.20;;
2225;SDS011;1119;48.288;8.726;2023-02-14T11:06:06;18.73;;;13.37;;
2225;SDS011;1119;48.288;8.726;2023-02-14T11:08:36;17.03;;;14.50;;
2225;SDS011;1119;48.288;8.726;2023-02-14T11:11:07;18.47;;;15.23;;
2225;SDS011;1119;48.288;8.726;2023-02-14T11:13:43;18.47;;;14.57;;
2225;SDS011;1119;48.288;8.726;2023-02-14T11:16:11;15.33;;;13.67;;
2225;SDS011;1119;48.288;8.726;2023-02-14T11:18:45;21.70;;;16.00;;
2225;SDS011;1119;48.288;8.726;2023-02-14T11:21:13;15.57;;;12.63;;
2225;SDS011;1119;48.288;8.726;2023-02-14T11:23:47;16.23;;;14.53;;
2225;SDS011;1119;48.288;8.726;2023-02-14T11:26:19;15.87;;;13.17;;
2225;SDS011;1119;48.288;8.726;2023-02-14T11:28:53;15.00;;;11.37;;
2225;SDS011;1119;48.288;8.726;2023-02-14T11:31:24;13.07;;;11.67;;
2225;SDS011;1119;48.288;8.726;2023-02-14T11:33:54;14.60;;;10.33;;
2225;SDS011;1119;48.288;8.726;2023-02-14T11:36:23;13.90;;;11.90;;
2225;SDS011;1119;48.288;8.726;2023-02-14T11:38:57;13.40;;;11.77;;
2225;SDS011;1119;48.288;8.726;2023-02-14T11:44:23;14.00;;;12.60;;
2225;SDS011;1119;48.288;8.726;2023-02-14T11:46:53;16.90;;;12.15;;
2225;SDS011;1119;48.288;8.726;2023-02-14T11:49:24;12.35;;;11.05;;
2225;SDS011;1119;48.288;8.726;2023-02-14T11:51:55;13.77;;;12.37;;
2225;SDS011;1119;48.288;8.726;2023-02-14T11:54:28;11.17;;;9.90;;
2225;SDS011;1119;48.288;8.726;2023-02-14T11:57:04;12.83;;;11.47;;
2225;SDS011;1119;48.288;8.726;2023-02-14T11:59:37;13.33;;;11.57;;
2225;SDS011;1119;48.288;8.726;2023-02-14T12:02:19;10.70;;;9.73;;
2225;SDS011;1119;48.288;8.726;2023-02-14T12:04:57;53.10;;;42.37;;
2225;SDS011;1119;48.288;8.726;2023-02-14T12:07:29;14.77;;;13.20;;
2225;SDS011;1119;48.288;8.726;2023-02-14T12:10:18;20.97;;;17.33;;
2225;SDS011;1119;48.288;8.726;2023-02-14T12:12:55;14.10;;;12.60;;
2225;SDS011;1119;48.288;8.726;2023-02-14T12:15:29;11.30;;;10.20;;
2225;SDS011;1119;48.288;8.726;2023-02-14T12:18:20;11.07;;;10.07;;
2225;SDS011;1119;48.288;8.726;2023-02-14T12:20:59;9.03;;;8.33;;
2225;SDS011;1119;48.288;8.726;2023-02-14T12:23:39;75.13;;;29.23;;
2225;SDS011;1119;48.288;8.726;2023-02-14T12:26:16;9.70;;;8.40;;
2225;SDS011;1119;48.288;8.726;2023-02-14T12:28:54;8.80;;;7.60;;
2225;SDS011;1119;48.288;8.726;2023-02-14T12:31:28;7.47;;;6.97;;
2225;SDS011;1119;48.288;8.726;2023-02-14T12:33:55;8.03;;;7.23;;
2225;SDS011;1119;48.288;8.726;2023-02-14T12:36:27;8.80;;;8.00;;
2225;SDS011;1119;48.288;8.726;2023-02-14T12:39:13;7.03;;;6.40;;
2225;SDS011;1119;48.288;8.726;2023-02-14T12:41:54;7.60;;;6.90;;
2225;SDS011;1119;48.288;8.726;2023-02-14T12:44:34;7.40;;;6.80;;
2225;SDS011;1119;48.288;8.726;2023-02-14T12:47:16;10.60;;;6.20;;
2225;SDS011;1119;48.288;8.726;2023-02-14T12:49:58;6.03;;;5.53;;
2225;SDS011;1119;48.288;8.726;2023-02-14T12:53:03;7.07;;;6.57;;
2225;SDS011;1119;48.288;8.726;2023-02-14T12:55:52;7.57;;;6.97;;
2225;SDS011;1119;48.288;8.726;2023-02-14T12:58:38;6.40;;;4.93;;
2225;SDS011;1119;48.288;8.726;2023-02-14T13:04:21;6.13;;;5.73;;
2225;SDS011;1119;48.288;8.726;2023-02-14T13:07:12;5.77;;;5.37;;
2225;SDS011;1119;48.288;8.726;2023-02-14T13:09:53;5.83;;;5.43;;
2225;SDS011;1119;48.288;8.726;2023-02-14T13:12:28;5.67;;;5.17;;
2225;SDS011;1119;48.288;8.726;2023-02-14T13:15:05;6.27;;;5.80;;
2225;SDS011;1119;48.288;8.726;2023-02-14T13:17:45;4.87;;;4.53;;
2225;SDS011;1119;48.288;8.726;2023-02-14T13:20:27;5.37;;;5.07;;
2225;SDS011;1119;48.288;8.726;2023-02-14T13:23:11;5.20;;;4.80;;
2225;SDS011;1119;48.288;8.726;2023-02-14T13:25:44;5.00;;;4.70;;
2225;SDS011;1119;48.288;8.726;2023-02-14T13:28:18;6.00;;;5.53;;
2225;SDS011;1119;48.288;8.726;2023-02-14T13:30:47;6.65;;;4.85;;
2225;SDS011;1119;48.288;8.726;2023-02-14T13:33:20;5.57;;;4.97;;
2225;SDS011;1119;48.288;8.726;2023-02-14T13:35:57;6.60;;;5.73;;
2225;SDS011;1119;48.288;8.726;2023-02-14T13:38:27;6.67;;;5.27;;
2225;SDS011;1119;48.288;8.726;2023-02-14T13:40:56;6.40;;;5.90;;
2225;SDS011;1119;48.288;8.726;2023-02-14T13:43:45;5.70;;;5.30;;
2225;SDS011;1119;48.288;8.726;2023-02-14T13:46:17;4.83;;;4.43;;
2225;SDS011;1119;48.288;8.726;2023-02-14T13:48:57;4.60;;;4.30;;
2225;SDS011;1119;48.288;8.726;2023-02-14T13:51:42;5.85;;;5.45;;
2225;SDS011;1119;48.288;8.726;2023-02-14T13:54:27;4.87;;;4.57;;
2225;SDS011;1119;48.288;8.726;2023-02-14T13:56:58;4.93;;;4.63;;
2225;SDS011;1119;48.288;8.726;2023-02-14T13:59:28;4.97;;;4.67;;
2225;SDS011;1119;48.288;8.726;2023-02-14T14:14:27;7.03;;;6.43;;
2225;SDS011;1119;48.288;8.726;2023-02-14T14:17:14;7.10;;;6.50;;
2225;SDS011;1119;48.288;8.726;2023-02-14T14:19:51;7.40;;;6.80;;
2225;SDS011;1119;48.288;8.726;2023-02-14T14:22:19;7.70;;;7.00;;
2225;SDS011;1119;48.288;8.726;2023-02-14T14:24:54;6.90;;;6.30;;
2225;SDS011;1119;48.288;8.726;2023-02-14T14:27:25;7.47;;;6.80;;
2225;SDS011;1119;48.288;8.726;2023-02-14T14:29:57;6.00;;;5.50;;
2225;SDS011;1119;48.288;8.726;2023-02-14T14:32:27;7.43;;;6.90;;
2225;SDS011;1119;48.288;8.726;2023-02-14T14:34:59;7.47;;;6.70;;
2225;SDS011;1119;48.288;8.726;2023-02-14T14:37:44;7.00;;;6.40;;
2225;SDS011;1119;48.288;8.726;2023-02-14T14:40:17;6.70;;;6.13;;
2225;SDS011;1119;48.288;8.726;2023-02-14T14:42:50;5.77;;;5.27;;
2225;SDS011;1119;48.288;8.726;2023-02-14T14:45:19;6.53;;;6.03;;
2225;SDS011;1119;48.288;8.726;2023-02-14T14:47:50;6.53;;;5.70;;
2225;SDS011;1119;48.288;8.726;2023-02-14T14:50:22;6.10;;;5.60;;
2225;SDS011;1119;48.288;8.726;2023-02-14T14:52:53;5.53;;;5.03;;
2225;SDS011;1119;48.288;8.726;2023-02-14T14:55:24;6.33;;;5.50;;
2225;SDS011;1119;48.288;8.726;2023-02-14T14:57:56;5.73;;;5.33;;
2225;SDS011;1119;48.288;8.726;2023-02-14T15:00:28;6.13;;;5.40;;
2225;SDS011;1119;48.288;8.726;2023-02-14T15:02:59;5.17;;;4.83;;
2225;SDS011;1119;48.288;8.726;2023-02-14T15:05:33;5.10;;;4.80;;
2225;SDS011;1119;48.288;8.726;2023-02-14T15:08:12;5.50;;;5.07;;
2225;SDS011;1119;48.288;8.726;2023-02-14T15:10:47;6.00;;;5.47;;
2225;SDS011;1119;48.288;8.726;2023-02-14T15:13:19;5.33;;;4.97;;
2225;SDS011;1119;48.288;8.726;2023-02-14T15:16:21;5.10;;;4.70;;
2225;SDS011;1119;48.288;8.726;2023-02-14T15:18:52;5.80;;;5.40;;
2225;SDS011;1119;48.288;8.726;2023-02-14T15:21:25;6.00;;;5.40;;
2225;SDS011;1119;48.288;8.726;2023-02-14T15:23:53;6.90;;;6.17;;
2225;SDS011;1119;48.288;8.726;2023-02-14T15:26:26;6.73;;;6.33;;
2225;SDS011;1119;48.288;8.726;2023-02-14T15:28:57;6.53;;;5.70;;
2225;SDS011;1119;48.288;8.726;2023-02-14T15:31:30;6.37;;;5.90;;
2225;SDS011;1119;48.288;8.726;2023-02-14T15:34:02;6.77;;;6.07;;
2225;SDS011;1119;48.288;8.726;2023-02-14T15:36:32;7.77;;;7.03;;
2225;SDS011;1119;48.288;8.726;2023-02-14T15:39:01;6.87;;;6.37;;
2225;SDS011;1119;48.288;8.726;2023-02-14T15:41:31;10.10;;;6.70;;
2225;SDS011;1119;48.288;8.726;2023-02-14T15:43:58;6.10;;;5.57;;
2225;SDS011;1119;48.288;8.726;2023-02-14T15:46:28;6.10;;;5.50;;
2225;SDS011;1119;48.288;8.726;2023-02-14T15:49:00;6.30;;;5.70;;
2225;SDS011;1119;48.288;8.726;2023-02-14T15:51:35;5.60;;;5.20;;
2225;SDS011;1119;48.288;8.726;2023-02-14T15:54:05;5.93;;;5.53;;
2225;SDS011;1119;48.288;8.726;2023-02-14T15:56:42;5.67;;;5.27;;
2225;SDS011;1119;48.288;8.726;2023-02-14T15:59:14;14.90;;;6.10;;
2225;SDS011;1119;48.288;8.726;2023-02-14T16:01:48;5.57;;;5.17;;